createdAt,value
2022-11-21T00:04:32.093Z,88
2022-11-21T00:09:31.830Z,88
2022-11-21T00:14:32.082Z,88
2022-11-21T00:19:32.106Z,88
2022-11-21T00:24:32.377Z,88
2022-11-21T00:29:31.694Z,88
2022-11-21T00:34:32.207Z,88
2022-11-21T00:39:31.553Z,88
2022-11-21T00:44:32.073Z,88
2022-11-21T00:49:32.024Z,88
2022-11-21T00:54:31.652Z,88
2022-11-21T00:59:31.848Z,88
2022-11-21T01:04:31.579Z,88
2022-11-21T01:09:32.042Z,88
2022-11-21T01:14:31.598Z,88
2022-11-21T01:19:32.068Z,89
2022-11-21T01:24:32.355Z,89
2022-11-21T01:29:31.569Z,89
2022-11-21T01:34:32.048Z,89
2022-11-21T01:39:32.347Z,89
2022-11-21T01:44:31.991Z,89
2022-11-21T01:49:32.397Z,89
2022-11-21T01:54:32.199Z,89
2022-11-21T01:59:32.409Z,89
2022-11-21T02:04:31.770Z,89
2022-11-21T02:09:32.345Z,89
2022-11-21T02:14:31.761Z,89
2022-11-21T02:19:31.853Z,89
2022-11-21T02:24:31.803Z,89
2022-11-21T02:29:32.205Z,89
2022-11-21T02:34:32.299Z,89
2022-11-21T02:39:32.421Z,89
2022-11-21T02:44:31.875Z,89
2022-11-21T02:49:31.650Z,89
2022-11-21T02:54:32.039Z,89
2022-11-21T02:59:31.751Z,89
2022-11-21T03:04:31.924Z,89
2022-11-21T03:09:32.581Z,89
2022-11-21T03:14:32.304Z,89
2022-11-21T03:19:31.879Z,89
2022-11-21T03:24:32.442Z,89
2022-11-21T03:29:31.576Z,89
2022-11-21T03:34:32.246Z,89
2022-11-21T03:39:32.237Z,90
2022-11-21T03:44:32.002Z,90
2022-11-21T03:49:31.966Z,90
2022-11-21T03:54:32.550Z,90
2022-11-21T03:59:32.464Z,89
2022-11-21T04:04:32.477Z,89
2022-11-21T04:09:32.097Z,89
2022-11-21T04:14:31.959Z,89
2022-11-21T04:19:32.205Z,90
2022-11-21T04:24:32.748Z,90
2022-11-21T04:29:32.131Z,90
2022-11-21T04:34:32.263Z,90
2022-11-21T04:39:32.676Z,90
2022-11-21T04:44:32.115Z,90
2022-11-21T04:49:32.550Z,90
2022-11-21T04:54:32.270Z,90
2022-11-21T04:59:32.560Z,90
2022-11-21T05:04:32.531Z,90
2022-11-21T05:09:32.203Z,90
2022-11-21T05:14:32.591Z,90
2022-11-21T05:19:32.178Z,90
2022-11-21T05:24:32.643Z,90
2022-11-21T05:29:32.027Z,90
2022-11-21T05:34:32.429Z,90
2022-11-21T05:39:32.250Z,90
2022-11-21T05:44:32.514Z,90
2022-11-21T05:49:31.891Z,90
2022-11-21T05:54:32.353Z,90
2022-11-21T05:59:32.421Z,90
2022-11-21T06:04:31.806Z,90
2022-11-21T06:09:32.191Z,90
2022-11-21T06:14:31.805Z,90
2022-11-21T06:19:32.044Z,90
2022-11-21T06:24:32.067Z,90
2022-11-21T06:29:32.328Z,91
2022-11-21T06:34:32.834Z,91
2022-11-21T06:39:32.117Z,91
2022-11-21T06:44:32.414Z,91
2022-11-21T06:49:32.688Z,91
2022-11-21T06:54:32.419Z,91
2022-11-21T06:59:31.692Z,91
2022-11-21T07:04:32.155Z,91
2022-11-21T07:09:34.396Z,91
2022-11-21T07:14:32.260Z,91
2022-11-21T07:19:32.476Z,91
2022-11-21T07:24:31.826Z,91
2022-11-21T07:29:32.115Z,91
2022-11-21T07:34:32.164Z,91
2022-11-21T07:39:32.536Z,91
2022-11-21T07:44:32.191Z,91
2022-11-21T07:49:32.645Z,91
2022-11-21T07:54:32.107Z,91
2022-11-21T07:59:32.392Z,91
2022-11-21T08:04:32.717Z,91
2022-11-21T08:09:39.852Z,91
2022-11-21T08:14:31.793Z,91
2022-11-21T08:19:32.020Z,91
2022-11-21T08:24:32.143Z,91
2022-11-21T08:29:32.455Z,91
2022-11-21T08:34:31.952Z,91
2022-11-21T08:39:32.275Z,91
2022-11-21T08:44:32.701Z,91
2022-11-21T08:49:32.050Z,92
2022-11-21T08:54:32.082Z,92
2022-11-21T08:59:32.630Z,92
2022-11-21T09:04:32.239Z,92
2022-11-21T09:09:32.056Z,92
2022-11-21T09:14:32.560Z,92
2022-11-21T09:19:32.369Z,92
2022-11-21T09:24:32.283Z,92
2022-11-21T09:29:32.697Z,92
2022-11-21T09:34:32.039Z,92
2022-11-21T09:39:32.680Z,92
2022-11-21T09:44:32.114Z,92
2022-11-21T09:49:32.432Z,92
2022-11-21T09:54:32.763Z,92
2022-11-21T09:59:32.142Z,92
2022-11-21T10:04:32.440Z,92
2022-11-21T10:09:32.001Z,92
2022-11-21T10:14:32.544Z,92
2022-11-21T10:19:32.803Z,92
2022-11-21T10:24:32.193Z,92
2022-11-21T10:29:32.694Z,92
2022-11-21T10:34:32.153Z,92
2022-11-21T10:39:32.716Z,92
2022-11-21T10:49:32.626Z,92
2022-11-21T10:54:32.342Z,92
2022-11-21T10:59:32.683Z,92
2022-11-21T11:04:51.870Z,92
2022-11-21T11:09:32.138Z,92
2022-11-21T11:14:32.576Z,92
2022-11-21T11:19:40.742Z,92
2022-11-21T11:24:32.397Z,92
2022-11-21T11:29:32.944Z,91
2022-11-21T11:34:32.692Z,91
2022-11-21T11:39:32.246Z,91
2022-11-21T11:44:32.582Z,91
2022-11-21T11:49:32.245Z,90
2022-11-21T11:54:32.820Z,90
2022-11-21T11:59:32.840Z,89
2022-11-21T12:04:32.368Z,89
2022-11-21T12:09:33.328Z,88
2022-11-21T12:14:32.335Z,88
2022-11-21T12:19:32.864Z,87
2022-11-21T12:24:32.366Z,87
2022-11-21T12:29:32.924Z,86
2022-11-21T12:34:32.334Z,86
2022-11-21T12:39:32.635Z,86
2022-11-21T12:44:31.997Z,86
2022-11-21T12:49:32.377Z,85
2022-11-21T12:54:32.224Z,85
2022-11-21T12:59:32.540Z,83
2022-11-21T13:04:32.861Z,83
2022-11-21T13:09:32.222Z,83
2022-11-21T13:14:32.211Z,83
2022-11-21T13:19:32.663Z,82
2022-11-21T13:24:32.922Z,82
2022-11-21T13:29:32.190Z,82
2022-11-21T13:34:32.444Z,82
2022-11-21T13:39:32.440Z,82
2022-11-21T13:44:32.715Z,82
2022-11-21T13:49:32.428Z,82
2022-11-21T13:54:32.153Z,82
2022-11-21T13:59:32.404Z,83
2022-11-21T14:04:32.866Z,83
2022-11-21T14:09:32.520Z,83
2022-11-21T14:14:32.979Z,83
2022-11-21T14:19:32.185Z,82
2022-11-21T14:24:32.796Z,82
2022-11-21T14:29:32.498Z,82
2022-11-21T14:34:33.041Z,82
2022-11-21T14:39:44.048Z,82
2022-11-21T14:44:32.989Z,82
2022-11-21T14:49:32.582Z,82
2022-11-21T14:54:32.615Z,82
2022-11-21T14:59:32.625Z,82
2022-11-21T15:04:32.688Z,82
2022-11-21T15:14:32.127Z,82
2022-11-21T15:19:33.833Z,82
2022-11-21T15:24:32.311Z,82
2022-11-21T15:29:33.184Z,82
2022-11-21T18:39:33.779Z,88
2022-11-21T18:44:32.263Z,88
2022-11-21T18:49:32.715Z,88
2022-11-21T18:54:33.099Z,88
2022-11-21T18:59:32.428Z,88
2022-11-21T19:04:32.856Z,88
2022-11-21T19:09:33.229Z,88
2022-11-21T19:14:32.190Z,88
2022-11-21T19:19:47.048Z,88
2022-11-21T19:24:32.351Z,88
2022-11-21T19:29:32.701Z,89
2022-11-21T19:34:33.104Z,89
2022-11-21T19:39:32.412Z,89
2022-11-21T19:44:32.637Z,89
2022-11-21T19:49:32.352Z,89
2022-11-21T19:54:32.908Z,89
2022-11-21T19:59:33.205Z,89
2022-11-21T20:04:32.713Z,89
2022-11-21T20:09:35.231Z,89
2022-11-21T20:14:32.945Z,89
2022-11-21T20:19:33.098Z,90
2022-11-21T20:24:42.088Z,90
2022-11-21T20:29:32.802Z,90
2022-11-21T20:34:33.080Z,90
2022-11-21T20:39:32.475Z,90
2022-11-21T20:46:07.696Z,90
2022-11-21T20:49:33.130Z,90
2022-11-21T20:54:33.363Z,90
2022-11-21T20:59:33.608Z,90
2022-11-21T21:04:33.003Z,90
2022-11-21T21:09:32.875Z,90
2022-11-21T21:14:33.153Z,90
2022-11-21T21:19:33.335Z,90
2022-11-21T21:24:32.922Z,90
2022-11-21T21:29:33.378Z,90
2022-11-21T21:34:33.700Z,90
2022-11-21T21:39:32.286Z,90
2022-11-21T21:44:34.076Z,90
2022-11-21T21:49:32.746Z,90
2022-11-21T21:54:33.158Z,90
2022-11-21T21:59:32.835Z,90
2022-11-21T22:05:12.785Z,90
2022-11-21T22:09:32.810Z,90
2022-11-21T22:14:33.100Z,90
2022-11-21T22:19:32.371Z,90
2022-11-21T22:24:32.651Z,90
2022-11-21T22:29:32.871Z,90
2022-11-21T22:34:33.211Z,90
2022-11-21T22:39:32.564Z,90
2022-11-21T22:44:33.445Z,90
2022-11-21T22:49:32.782Z,90
2022-11-21T22:54:33.035Z,90
2022-11-21T22:59:33.302Z,90
2022-11-21T23:04:33.360Z,90
2022-11-21T23:09:32.899Z,90
2022-11-21T23:14:33.224Z,90
2022-11-21T23:19:32.849Z,90
2022-11-21T23:24:33.238Z,90
2022-11-21T23:29:32.766Z,90
2022-11-21T23:34:32.952Z,90
2022-11-21T23:39:33.150Z,90
2022-11-21T23:44:32.439Z,90
2022-11-21T23:49:33.301Z,90
2022-11-21T23:54:32.507Z,90
2022-11-21T23:59:33.066Z,90
